Latest Coastal Weather Observations for Hobart Airport

IDT60701

Issued at 12:25 pm EST Wednesday 24 September 2014 (issued every 10 minutes, with the page automatically refreshed every 10 minutes)

About coastal observations | Map of coastal stations | Coastal observations for TAS | Marine services | Other Formats
Station Details ID: 094008 Name: HOBART AIRPORT Lat: -42.83 Lon: 147.50 Height: 4.0 m
Data from the previous 72 hours. | See also: Recent months at Hobart Airport
Date/Time
EST
Temp

°C
Wind Pressure Rain
since 9am
mm
Weather Cloud Vis
km
Sea
Height
m
Swell
Dir
 
Speed
knots
Gust
knots
hPa Trend Height
m
Period
s
Dir
24/12:00pm 17.2 NNW 7 9 1013.2 F 0.0 Rain Cloudy 30 - - - -
24/11:30am 16.8 NW 9 11 1014.0 - 0.0 - Partly cloudy 10 - - - -
24/11:00am 16.8 NW 9 12 1014.4 - 0.0 - Partly cloudy 10 - - - -
24/10:30am 16.5 NNW 7 10 1015.0 - 0.0 - Partly cloudy 10 - - - -
24/10:00am 16.0 NW 9 13 1015.4 - 0.0 - Partly cloudy 10 - - - -
24/09:30am 14.8 NW 4 6 1015.8 - 0.0 - - 10 - - - -
24/09:00am 14.0 NW 9 10 1016.0 F 0.0 Haze Mostly cloudy 35 - - - -
24/08:30am 13.5 NNW 9 13 1015.9 - 0.0 - - 10 - - - -
24/08:00am 12.8 NNW 7 10 1016.0 - 0.0 - Partly cloudy 10 - - - -
24/07:30am 12.6 NNW 8 13 1016.1 - 0.0 - - 10 - - - -
24/07:00am 12.3 NW 10 13 1016.0 - 0.0 - - 10 - - - -
24/06:30am 11.9 NNW 9 12 1016.2 - 0.0 - - 10 - - - -
24/06:00am 11.9 NW 11 13 1016.3 F 0.0 Haze Mostly cloudy 30 - - - -
24/05:30am 11.6 NW 10 13 1016.6 - 0.0 - - 10 - - - -
24/05:00am 11.8 NW 10 12 1016.7 - 0.0 - - 10 - - - -
24/04:30am 11.4 W 8 10 1016.9 - 0.0 - - 10 - - - -
24/04:00am 11.6 NW 7 9 1017.0 - 0.0 - - 10 - - - -
24/03:30am 11.0 NW 10 12 1017.2 - 0.0 - - 10 - - - -
24/03:00am 11.8 NW 8 11 1017.5 F 0.0 Haze Mostly cloudy 35 - - - -
24/02:30am 11.4 NW 10 12 1017.8 - 0.0 - - 10 - - - -
24/02:00am 10.9 NW 10 13 1018.2 - 0.0 - - 10 - - - -
24/01:30am 11.1 NW 11 13 1018.7 - 0.0 - - 10 - - - -
24/01:00am 11.2 NW 9 14 1018.8 - 0.0 - - 10 - - - -
24/12:30am 11.1 NNW 9 11 1018.9 - 0.0 - - 10 - - - -
 
Date/Time
EST
Temp

°C
Wind Pressure Rain
since 9am
mm
Weather Cloud Vis
km
Sea
Height
m
Swell
Dir
 
Speed
knots
Gust
knots
hPa Trend Height
m
Period
s
Dir
23/11:30pm 11.6 NW 10 12 1018.9 - 0.0 - - 10 - - - -
23/11:00pm 12.7 NW 9 14 1018.9 - 0.0 - - 10 - - - -
23/10:30pm 12.7 NW 10 13 1019.1 - 0.0 - - 10 - - - -
23/10:00pm 14.4 NW 10 11 1019.3 - 0.0 - - 10 - - - -
23/09:30pm 14.1 NW 11 14 1019.4 - 0.0 - - 10 - - - -
23/09:00pm 14.5 NNW 3 5 1019.6 F 0.0 Haze Partly cloudy 35 - - - -
23/08:30pm 16.6 SE 3 5 1019.7 - 0.0 - - 10 - - - -
23/08:00pm 12.3 SSE 5 6 1019.6 - 0.0 - - 10 - - - -
23/07:30pm 13.3 SSE 5 6 1019.6 - 0.0 - - 10 - - - -
23/07:00pm 13.5 SSE 6 8 1019.4 - 0.0 - - 10 - - - -
23/06:30pm 14.7 SSE 6 7 1019.3 - 0.0 - - 10 - - - -
23/06:00pm 19.4 N 6 10 1019.2 F 0.0 Haze Mostly cloudy 30 - - - -
23/05:30pm 21.6 NNW 7 9 1019.0 - 0.0 - - 10 - - - -
23/05:00pm 22.8 NNW 6 9 1018.9 - 0.0 - - 10 - - - -
23/04:30pm 24.4 W 5 6 1018.9 - 0.0 - - 10 - - - -
23/04:00pm 24.1 WNW 7 10 1019.0 - 0.0 - - 10 - - - -
23/03:30pm 24.5 W 9 14 1019.2 - 0.0 - - 10 - - - -
23/03:00pm 24.3 N 7 10 1019.6 - 0.0 - - 10 - - - -
23/02:30pm 23.9 NW 9 12 1020.0 - 0.0 - - 10 - - - -
23/12:00pm 20.5 NNW 13 16 1021.8 F 0.0 Haze Mostly cloudy 35 - - - -
23/11:30am 20.2 NW 11 16 1022.5 - 0.0 - - 10 - - - -
23/11:00am 19.6 NNW 13 15 1022.8 - 0.0 - - 10 - - - -
23/10:30am 18.4 NNW 13 16 1023.0 - 0.0 - - 10 - - - -
23/10:00am 17.6 NNW 11 16 1023.5 - 0.0 - - 10 - - - -
23/09:30am 16.4 NNW 12 17 1023.8 - 0.0 - - 10 - - - -
23/09:00am 15.1 N 11 14 1024.0 S 0.0 Haze Mostly cloudy 30 - - - -
23/08:30am 13.5 N 12 17 1024.1 - 0.0 - - 10 - - - -
23/08:00am 12.2 N 8 10 1024.2 - 0.0 - - 10 - - - -
23/07:30am 10.9 N 10 13 1023.8 - 0.0 - - 10 - - - -
23/07:00am 9.7 N 8 13 1023.6 - 0.0 - - 10 - - - -
23/06:30am 8.2 N 10 13 1023.4 - 0.0 - - 10 - - - -
23/06:00am 8.2 N 11 16 1023.4 F 0.0 Haze Partly cloudy 25 - - - -
23/05:30am 8.5 N 12 19 1023.2 - 0.0 - - 10 - - - -
23/05:00am 8.6 NNW 9 11 1023.4 - 0.0 - - 10 - - - -
23/04:30am 8.3 N 10 14 1023.3 - 0.0 - - 10 - - - -
23/04:00am 9.1 NNW 11 15 1023.5 - 0.0 - - 10 - - - -
23/03:30am 9.3 NNW 10 14 1023.5 - 0.0 - - 10 - - - -
23/03:00am 9.7 NNW 11 16 1023.6 R 0.0 Fine Partly cloudy 30 - - - -
23/02:30am 10.1 NNW 10 14 1023.7 - 0.0 - - 10 - - - -
23/02:00am 10.5 NNW 8 12 1024.0 - 0.0 - - 10 - - - -
23/01:30am 10.9 NNW 8 12 1024.2 - 0.0 - - 10 - - - -
23/01:00am 11.2 NNW 12 16 1024.3 - 0.0 - - 10 - - - -
23/12:30am 11.5 NNW 8 13 1024.2 - 0.0 - - 10 - - - -
23/12:00am 11.5 NNW 6 8 1024.2 R 0.0 Fine Partly cloudy 30 - - - -
 
Date/Time
EST
Temp

°C
Wind Pressure Rain
since 9am
mm
Weather Cloud Vis
km
Sea
Height
m
Swell
Dir
 
Speed
knots
Gust
knots
hPa Trend Height
m
Period
s
Dir
22/11:30pm 12.0 NW 11 15 1024.1 - 0.0 - - 10 - - - -
22/11:00pm 11.3 N 7 14 1024.0 - 0.0 - - 10 - - - -
22/10:30pm 12.4 NE 4 6 1023.9 - 0.0 - - 10 - - - -
22/10:00pm 8.9 S 3 5 1023.8 - 0.0 - - 10 - - - -
22/09:30pm 9.0 CALM 0 1 1023.8 - 0.0 - - 10 - - - -
22/09:00pm 10.6 CALM 0 0 1023.7 R 0.0 Fine Mostly cloudy 25 - - - -
22/08:30pm 9.6 CALM 0 0 1023.6 - 0.0 - - 10 - - - -
22/08:00pm 11.0 ESE 2 5 1023.3 - 0.0 - - 10 - - - -
22/07:30pm 11.9 CALM 0 4 1023.1 - 0.0 - - 10 - - - -
22/07:00pm 12.1 NNE 6 8 1022.7 - 0.0 - - 10 - - - -
22/06:30pm 12.9 NE 4 6 1022.3 - 0.0 - - 10 - - - -
22/06:00pm 13.9 SSE 10 13 1022.2 F 0.0 Fine Mostly cloudy 40 - - - -
22/05:30pm 15.0 SSE 11 15 1021.8 - 0.0 - - 10 - - - -
22/05:00pm 16.8 SSE 10 12 1021.3 - 0.0 - - 10 - - - -
22/04:30pm 19.0 SSE 9 11 1021.2 - 0.0 - - 10 - - - -
22/04:00pm 18.4 SSE 9 11 1021.2 - 0.0 - - 10 - - - -
22/03:30pm 19.1 SSE 9 11 1021.2 - 0.0 - - 10 - - - -
22/03:00pm 20.1 SSE 9 14 1021.4 F 0.0 Fine Mostly cloudy 40 - - - -
22/02:30pm 22.2 SSE 8 9 1021.5 - 0.0 - - 10 - - - -
22/02:00pm 21.4 SSE 8 10 1022.2 - 0.0 - - 10 - - - -
22/01:30pm 20.7 SE 7 9 1022.6 - 0.0 - - 10 - - - -
22/01:00pm 19.9 SSE 9 11 1023.1 - 0.0 - - 10 - - - -
22/12:30pm 20.4 SSE 7 10 1023.5 - 0.0 - - 10 - - - -
22/12:00pm 18.9 NNW 6 11 1024.0 F 0.0 Fine Mostly clear 40 - - - -
22/11:30am 20.1 NNE 5 8 1024.4 - 0.0 - - 10 - - - -
22/11:00am 17.8 NNE 5 6 1024.8 - 0.0 - - 10 - - - -
22/10:30am 17.0 NNE 6 8 1025.1 - 0.0 - - 10 - - - -
22/10:00am 15.6 NNW 8 12 1025.7 - 0.0 - - 10 - - - -
22/09:30am 13.7 NW 8 11 1026.2 - 0.0 - - 10 - - - -
22/09:00am 12.7 NNW 7 9 1026.4 F 0.0 Haze Mostly clear 35 - - - -
22/08:30am 11.2 NNW 8 10 1026.8 - 0.0 - Mostly clear 10 - - - -
22/08:00am 10.4 NNW 9 14 1026.9 - 0.0 - Mostly clear 10 - - - -
22/07:30am 9.6 N 6 10 1027.0 - 0.0 - Mostly clear 10 - - - -
22/07:00am 8.9 NNE 5 6 1027.0 - 0.0 - Mostly clear 10 - - - -
22/06:30am 7.8 NNW 8 11 1026.9 - 0.0 - - 10 - - - -
22/06:00am 6.5 N 4 6 1026.8 F 0.0 Fine Mostly clear 40 - - - -
22/05:30am 6.2 WNW 5 6 1026.6 - 0.0 - - 10 - - - -
22/05:00am 6.5 NNW 6 8 1026.4 - 0.0 - - 10 - - - -
22/04:30am 7.6 NNW 4 6 1026.5 - 0.0 - - 10 - - - -
22/04:00am 7.5 NNW 7 9 1026.5 - 0.0 - - 10 - - - -
22/03:30am 7.9 NW 4 7 1026.4 - 0.0 - - 10 - - - -
22/03:00am 8.9 NW 6 8 1026.5 R 0.0 Fine Clear 40 - - - -
22/02:30am 9.2 NW 7 9 1026.6 - 0.0 - - 10 - - - -
22/02:00am 8.9 N 10 14 1026.5 - 0.0 - - 10 - - - -
22/01:30am 9.5 N 7 11 1026.8 - 0.0 - - 10 - - - -
22/01:00am 9.8 NNW 11 17 1026.9 - 0.0 - - 10 - - - -
22/12:30am 9.9 N 10 15 1027.1 - 0.0 - - 10 - - - -
22/12:00am 9.9 NNW 9 15 1027.1 F 0.0 Fine Clear 40 - - - -
 
Date/Time
EST
Temp

°C
Wind Pressure Rain
since 9am
mm
Weather Cloud Vis
km
Sea
Height
m
Swell
Dir
 
Speed
knots
Gust
knots
hPa Trend Height
m
Period
s
Dir
21/11:30pm 9.7 NNW 7 9 1027.3 - 0.0 - - 10 - - - -
21/11:00pm 10.4 N 5 7 1027.6 - 0.0 - - 10 - - - -
21/10:30pm 9.3 WSW 4 4 1027.8 - 0.0 - - 10 - - - -
21/10:00pm 11.6 NNW 7 10 1027.8 - 0.0 - - 10 - - - -
21/09:30pm 12.6 NNW 10 14 1027.7 - 0.0 - - 10 - - - -
21/09:00pm 13.3 NNW 11 15 1027.7 R 0.0 Fine Clear 40 - - - -
21/08:30pm 13.6 NW 9 13 1027.7 - 0.0 - - 10 - - - -
21/08:00pm 14.1 NNW 9 13 1027.5 - 0.0 - - 10 - - - -
21/07:30pm 12.9 NNW 5 7 1027.3 - 0.0 - - 10 - - - -
21/07:00pm 13.3 CALM 0 0 1027.0 - 0.0 - - 10 - - - -
21/06:30pm 14.1 NW 6 9 1026.6 - 0.0 - - 10 - - - -
21/06:00pm 15.2 NNW 5 7 1026.3 R 0.0 Fine Mostly clear 40 - - - -
21/05:30pm 17.4 WNW 8 11 1026.0 - 0.0 - - 10 - - - -
21/05:00pm 18.3 WNW 12 15 1025.7 - 0.0 - - 10 - - - -
21/04:30pm 19.0 WNW 13 16 1025.5 - 0.0 - - 10 - - - -
21/04:00pm 19.9 WNW 10 13 1025.4 - 0.0 - - 10 - - - -
21/03:30pm 20.3 NNW 9 13 1025.4 - 0.0 - - 10 - - - -
21/03:00pm 20.0 NW 9 11 1025.3 R 0.0 Fine Mostly clear 40 - - - -
21/02:30pm 20.1 SW 7 13 1025.3 - 0.0 - - 10 - - - -
21/02:00pm 20.0 SW 7 10 1025.3 - 0.0 - - 10 - - - -
21/01:30pm 20.0 WNW 9 14 1025.5 - 0.0 - - 10 - - - -
21/01:00pm 19.6 W 8 13 1025.6 - 0.0 - Mostly clear 10 - - - -
21/12:30pm 19.1 NW 11 15 1025.8 - 0.0 - - 10 - - - -

Other Formats:

Comma delimited format used in spreadsheet applications
http://www.bom.gov.au/fwo/IDT60701/IDT60701.94975.axf

JavaScript Object Notation format (JSON) in row-major order
http://www.bom.gov.au/fwo/IDT60701/IDT60701.94975.json